KPLR/PLR METAR and TAF weather

Enter ICAO airport designator
Station Type Date Time Source
KPLR METAR 2019/10/21 05:15 UTC NOAA

KPLR 210515Z AUTO 00000KT 10SM BKN001 13/13 A2997 RMK A01


Station Type Date Time Source
KPLR Decoded METAR 2019/10/21 05:15 UTC NOAA

Station name not available
Oct 21, 2019 - 01:15 AM EDT / 2019.10.21 0515 UTC
Wind: Calm:0
Visibility: 10 mile(s):0
Sky conditions: mostly cloudy
Temperature: 55 F (13 C)
Dew Point: 55 F (13 C)
Relative Humidity: 100%
Pressure (altimeter): 29.97 in. Hg (1014 hPa)
ob: KPLR 210515Z AUTO 00000KT 10SM BKN001 13/13 A2997 RMK A01
cycle: 5

Station Type Date Time Source
KPLR TAF UTC NOAA

Error!

Example: see airport list